sensor_id;sensor_type;location;lat;lon;timestamp;pressure;altitude;pressure_sealevel;temperature;humidity
62051;BME280;48008;51.204;6.766;2022-09-13T00:01:25;100627.84;;;18.41;69.19
62051;BME280;48008;51.204;6.766;2022-09-13T00:03:51;100639.19;;;18.44;69.40
62051;BME280;48008;51.204;6.766;2022-09-13T00:06:19;100636.50;;;18.44;69.29
62051;BME280;48008;51.204;6.766;2022-09-13T00:08:46;100628.88;;;18.40;69.51
62051;BME280;48008;51.204;6.766;2022-09-13T00:11:15;100617.91;;;18.35;69.59
62051;BME280;48008;51.204;6.766;2022-09-13T00:13:43;100611.94;;;18.40;68.48
62051;BME280;48008;51.204;6.766;2022-09-13T00:16:12;100601.59;;;18.44;68.93
62051;BME280;48008;51.204;6.766;2022-09-13T00:18:40;100601.41;;;18.45;68.55
62051;BME280;48008;51.204;6.766;2022-09-13T00:21:10;100593.13;;;18.47;68.70
62051;BME280;48008;51.204;6.766;2022-09-13T00:23:37;100594.97;;;18.46;68.68
62051;BME280;48008;51.204;6.766;2022-09-13T00:26:07;100597.91;;;18.45;69.00
62051;BME280;48008;51.204;6.766;2022-09-13T00:28:34;100589.84;;;18.45;68.46
62051;BME280;48008;51.204;6.766;2022-09-13T00:31:03;100590.84;;;18.44;69.22
62051;BME280;48008;51.204;6.766;2022-09-13T00:33:30;100595.63;;;18.41;69.10
62051;BME280;48008;51.204;6.766;2022-09-13T00:35:57;100598.72;;;18.32;69.64
62051;BME280;48008;51.204;6.766;2022-09-13T00:38:24;100610.72;;;18.36;68.99
62051;BME280;48008;51.204;6.766;2022-09-13T00:40:50;100606.56;;;18.40;69.28
62051;BME280;48008;51.204;6.766;2022-09-13T00:43:19;100605.31;;;18.42;69.19
62051;BME280;48008;51.204;6.766;2022-09-13T00:45:47;100597.84;;;18.51;70.00
62051;BME280;48008;51.204;6.766;2022-09-13T00:48:18;100608.41;;;18.53;70.04
62051;BME280;48008;51.204;6.766;2022-09-13T00:50:52;100600.13;;;18.48;70.03
62051;BME280;48008;51.204;6.766;2022-09-13T00:53:29;100590.84;;;18.50;70.38
62051;BME280;48008;51.204;6.766;2022-09-13T00:56:01;100598.91;;;18.50;69.94
62051;BME280;48008;51.204;6.766;2022-09-13T00:58:32;100598.06;;;18.56;69.56
62051;BME280;48008;51.204;6.766;2022-09-13T01:01:00;100593.72;;;18.55;70.62
62051;BME280;48008;51.204;6.766;2022-09-13T01:03:30;100592.69;;;18.56;69.55
62051;BME280;48008;51.204;6.766;2022-09-13T01:06:03;100593.31;;;18.52;70.14
62051;BME280;48008;51.204;6.766;2022-09-13T01:08:34;100584.63;;;18.50;70.21
62051;BME280;48008;51.204;6.766;2022-09-13T01:11:05;100592.50;;;18.51;70.69
62051;BME280;48008;51.204;6.766;2022-09-13T01:13:37;100592.28;;;18.46;70.32
62051;BME280;48008;51.204;6.766;2022-09-13T01:16:04;100600.59;;;18.45;70.40
62051;BME280;48008;51.204;6.766;2022-09-13T01:18:31;100600.59;;;18.31;70.09
62051;BME280;48008;51.204;6.766;2022-09-13T01:29:58;100586.34;;;18.31;71.43
62051;BME280;48008;51.204;6.766;2022-09-13T01:39:04;100579.94;;;18.25;71.33
62051;BME280;48008;51.204;6.766;2022-09-13T01:41:46;100577.25;;;18.25;71.61
62051;BME280;48008;51.204;6.766;2022-09-13T01:48:00;100583.28;;;18.14;71.75
62051;BME280;48008;51.204;6.766;2022-09-13T01:50:26;100572.72;;;18.12;71.22
62051;BME280;48008;51.204;6.766;2022-09-13T01:53:05;100571.06;;;18.18;71.26
62051;BME280;48008;51.204;6.766;2022-09-13T01:56:11;100569.22;;;18.25;70.70
62051;BME280;48008;51.204;6.766;2022-09-13T01:58:30;100567.97;;;18.21;71.50
62051;BME280;48008;51.204;6.766;2022-09-13T02:01:15;100565.28;;;18.14;71.59
62051;BME280;48008;51.204;6.766;2022-09-13T02:03:52;100565.50;;;18.13;72.03
62051;BME280;48008;51.204;6.766;2022-09-13T02:06:27;100568.38;;;18.11;71.80
62051;BME280;48008;51.204;6.766;2022-09-13T02:08:59;100563.00;;;18.11;72.16
62051;BME280;48008;51.204;6.766;2022-09-13T02:11:27;100565.50;;;18.06;72.74
62051;BME280;48008;51.204;6.766;2022-09-13T02:13:59;100562.81;;;18.06;72.38
62051;BME280;48008;51.204;6.766;2022-09-13T02:16:34;100568.19;;;18.13;72.27
62051;BME280;48008;51.204;6.766;2022-09-13T02:19:07;100561.16;;;18.12;72.69
62051;BME280;48008;51.204;6.766;2022-09-13T02:21:39;100567.97;;;18.14;72.59
62051;BME280;48008;51.204;6.766;2022-09-13T02:24:14;100569.00;;;18.13;72.79
62051;BME280;48008;51.204;6.766;2022-09-13T02:26:44;100563.00;;;18.11;72.81
62051;BME280;48008;51.204;6.766;2022-09-13T02:29:15;100562.59;;;18.08;73.49
62051;BME280;48008;51.204;6.766;2022-09-13T02:32:08;100561.38;;;18.03;73.13
62051;BME280;48008;51.204;6.766;2022-09-13T02:34:55;100564.47;;;18.00;73.51
62051;BME280;48008;51.204;6.766;2022-09-13T02:37:28;100558.28;;;18.00;73.17
62051;BME280;48008;51.204;6.766;2022-09-13T02:39:59;100552.91;;;18.07;73.04
62051;BME280;48008;51.204;6.766;2022-09-13T02:42:35;100559.09;;;18.07;71.99
62051;BME280;48008;51.204;6.766;2022-09-13T02:45:04;100561.59;;;18.09;72.48
62051;BME280;48008;51.204;6.766;2022-09-13T02:47:53;100561.16;;;18.12;72.50
62051;BME280;48008;51.204;6.766;2022-09-13T02:50:44;100549.81;;;18.10;72.25
62051;BME280;48008;51.204;6.766;2022-09-13T02:57:07;100562.59;;;18.14;73.68
62051;BME280;48008;51.204;6.766;2022-09-13T02:59:18;100562.19;;;18.11;73.48
62051;BME280;48008;51.204;6.766;2022-09-13T03:01:51;100571.91;;;18.05;73.90
62051;BME280;48008;51.204;6.766;2022-09-13T03:04:20;100583.88;;;18.09;73.36
62051;BME280;48008;51.204;6.766;2022-09-13T03:06:48;100575.41;;;18.12;72.86
62051;BME280;48008;51.204;6.766;2022-09-13T03:09:16;100572.31;;;18.09;74.84
62051;BME280;48008;51.204;6.766;2022-09-13T03:20:20;100578.47;;;17.82;80.25
62051;BME280;48008;51.204;6.766;2022-09-13T03:23:04;100574.13;;;17.75;79.09
62051;BME280;48008;51.204;6.766;2022-09-13T03:25:48;100578.28;;;17.71;81.00
62051;BME280;48008;51.204;6.766;2022-09-13T03:28:49;100576.19;;;17.73;81.63
62051;BME280;48008;51.204;6.766;2022-09-13T03:37:10;100562.78;;;17.59;81.84
62051;BME280;48008;51.204;6.766;2022-09-13T03:39:48;100555.97;;;17.57;81.83
62051;BME280;48008;51.204;6.766;2022-09-13T03:42:23;100545.25;;;17.50;81.69
62051;BME280;48008;51.204;6.766;2022-09-13T03:44:55;100546.06;;;17.51;81.29
62051;BME280;48008;51.204;6.766;2022-09-13T03:47:25;100548.97;;;17.56;82.25
62051;BME280;48008;51.204;6.766;2022-09-13T03:49:54;100545.22;;;17.57;82.05
62051;BME280;48008;51.204;6.766;2022-09-13T03:52:22;100545.44;;;17.62;83.48
62051;BME280;48008;51.204;6.766;2022-09-13T03:54:48;100545.03;;;17.58;83.56
62051;BME280;48008;51.204;6.766;2022-09-13T03:57:18;100541.13;;;17.61;82.84
62051;BME280;48008;51.204;6.766;2022-09-13T03:59:49;100546.69;;;17.59;82.97
62051;BME280;48008;51.204;6.766;2022-09-13T04:02:17;100542.13;;;17.53;82.76
62051;BME280;48008;51.204;6.766;2022-09-13T04:04:45;100538.03;;;17.57;82.81
62051;BME280;48008;51.204;6.766;2022-09-13T04:07:14;100541.13;;;17.61;83.03
62051;BME280;48008;51.204;6.766;2022-09-13T04:09:41;100539.47;;;17.60;82.72
62051;BME280;48008;51.204;6.766;2022-09-13T04:12:08;100540.72;;;17.57;83.18
62051;BME280;48008;51.204;6.766;2022-09-13T04:14:35;100550.19;;;17.53;82.34
62051;BME280;48008;51.204;6.766;2022-09-13T04:17:03;100540.06;;;17.55;82.79
62051;BME280;48008;51.204;6.766;2022-09-13T04:19:29;100542.75;;;17.62;82.93
62051;BME280;48008;51.204;6.766;2022-09-13T04:21:57;100538.66;;;17.59;83.15
62051;BME280;48008;51.204;6.766;2022-09-13T04:24:25;100543.16;;;17.59;84.15
62051;BME280;48008;51.204;6.766;2022-09-13T04:26:53;100546.69;;;17.59;84.51
62051;BME280;48008;51.204;6.766;2022-09-13T04:29:21;100553.47;;;17.55;84.11
62051;BME280;48008;51.204;6.766;2022-09-13T04:31:49;100546.88;;;17.51;83.91
62051;BME280;48008;51.204;6.766;2022-09-13T04:34:17;100549.56;;;17.51;83.80
62051;BME280;48008;51.204;6.766;2022-09-13T04:36:45;100548.13;;;17.55;84.23
62051;BME280;48008;51.204;6.766;2022-09-13T04:39:12;100552.88;;;17.60;85.56
62051;BME280;48008;51.204;6.766;2022-09-13T04:41:41;100551.66;;;17.56;85.67
62051;BME280;48008;51.204;6.766;2022-09-13T04:44:10;100554.94;;;17.44;85.33
62051;BME280;48008;51.204;6.766;2022-09-13T04:46:37;100555.31;;;17.35;85.51
62051;BME280;48008;51.204;6.766;2022-09-13T04:49:03;100559.59;;;17.22;86.06
62051;BME280;48008;51.204;6.766;2022-09-13T04:51:30;100565.38;;;17.26;86.49
62051;BME280;48008;51.204;6.766;2022-09-13T04:53:57;100567.06;;;17.27;87.53
62051;BME280;48008;51.204;6.766;2022-09-13T04:56:23;100575.72;;;17.29;86.82
62051;BME280;48008;51.204;6.766;2022-09-13T04:58:53;100568.25;;;17.24;88.47
62051;BME280;48008;51.204;6.766;2022-09-13T05:01:21;100562.53;;;17.34;88.36
62051;BME280;48008;51.204;6.766;2022-09-13T05:03:51;100554.69;;;17.33;89.85
62051;BME280;48008;51.204;6.766;2022-09-13T05:06:19;100557.16;;;17.34;88.82
62051;BME280;48008;51.204;6.766;2022-09-13T05:08:51;100559.63;;;17.29;87.80
62051;BME280;48008;51.204;6.766;2022-09-13T05:11:22;100561.47;;;17.22;85.76
62051;BME280;48008;51.204;6.766;2022-09-13T05:13:51;100569.50;;;17.22;86.39
62051;BME280;48008;51.204;6.766;2022-09-13T05:16:21;100564.16;;;17.29;87.44
62051;BME280;48008;51.204;6.766;2022-09-13T05:18:48;100565.63;;;17.31;87.93
62051;BME280;48008;51.204;6.766;2022-09-13T05:21:15;100559.22;;;17.25;87.90
62051;BME280;48008;51.204;6.766;2022-09-13T05:23:43;100563.97;;;17.30;87.20
62051;BME280;48008;51.204;6.766;2022-09-13T05:26:10;100564.56;;;17.25;88.12
62051;BME280;48008;51.204;6.766;2022-09-13T05:28:37;100565.41;;;17.33;88.11
62051;BME280;48008;51.204;6.766;2022-09-13T05:31:06;100553.25;;;17.30;88.04
62051;BME280;48008;51.204;6.766;2022-09-13T05:33:35;100573.44;;;17.26;88.28
62051;BME280;48008;51.204;6.766;2022-09-13T05:36:04;100567.28;;;17.32;87.54
62051;BME280;48008;51.204;6.766;2022-09-13T05:38:31;100564.16;;;17.35;88.64
62051;BME280;48008;51.204;6.766;2022-09-13T05:41:01;100564.59;;;17.39;87.94
62051;BME280;48008;51.204;6.766;2022-09-13T05:43:30;100563.19;;;17.43;88.88
62051;BME280;48008;51.204;6.766;2022-09-13T05:46:14;100573.69;;;17.38;86.85
62051;BME280;48008;51.204;6.766;2022-09-13T05:48:41;100568.75;;;17.41;87.54
62051;BME280;48008;51.204;6.766;2022-09-13T05:51:12;100565.25;;;17.41;87.75
62051;BME280;48008;51.204;6.766;2022-09-13T05:53:41;100566.47;;;17.45;87.15
62051;BME280;48008;51.204;6.766;2022-09-13T05:56:09;100574.53;;;17.45;86.45
62051;BME280;48008;51.204;6.766;2022-09-13T05:58:40;100572.25;;;17.49;87.40
62051;BME280;48008;51.204;6.766;2022-09-13T06:01:10;100567.50;;;17.51;87.21
62051;BME280;48008;51.204;6.766;2022-09-13T06:03:37;100562.97;;;17.51;87.36
62051;BME280;48008;51.204;6.766;2022-09-13T06:06:04;100567.72;;;17.56;87.86
62051;BME280;48008;51.204;6.766;2022-09-13T06:08:32;100564.00;;;17.57;86.04
62051;BME280;48008;51.204;6.766;2022-09-13T06:11:03;100564.84;;;17.57;86.71
62051;BME280;48008;51.204;6.766;2022-09-13T06:13:31;100576.19;;;17.53;86.46
62051;BME280;48008;51.204;6.766;2022-09-13T06:16:00;100571.63;;;17.46;86.11
62051;BME280;48008;51.204;6.766;2022-09-13T06:18:28;100572.91;;;17.57;86.64
62051;BME280;48008;51.204;6.766;2022-09-13T06:21:00;100572.50;;;17.67;86.89
62051;BME280;48008;51.204;6.766;2022-09-13T06:23:28;100579.28;;;17.70;86.27
62051;BME280;48008;51.204;6.766;2022-09-13T06:26:05;100580.13;;;17.77;85.77
62051;BME280;48008;51.204;6.766;2022-09-13T06:28:32;100580.53;;;17.80;85.95
62051;BME280;48008;51.204;6.766;2022-09-13T06:31:12;100579.91;;;17.78;84.57
62051;BME280;48008;51.204;6.766;2022-09-13T06:33:41;100586.50;;;17.82;85.17
62051;BME280;48008;51.204;6.766;2022-09-13T06:36:10;100583.06;;;17.89;84.17
62051;BME280;48008;51.204;6.766;2022-09-13T06:38:38;100587.59;;;17.88;84.19
62051;BME280;48008;51.204;6.766;2022-09-13T06:41:11;100591.50;;;18.06;84.61
62051;BME280;48008;51.204;6.766;2022-09-13T06:43:39;100583.47;;;17.86;83.87
62051;BME280;48008;51.204;6.766;2022-09-13T06:46:09;100578.72;;;17.94;82.72
62051;BME280;48008;51.204;6.766;2022-09-13T06:48:38;100571.91;;;17.98;83.03
62051;BME280;48008;51.204;6.766;2022-09-13T06:51:07;100570.47;;;17.89;82.62
62051;BME280;48008;51.204;6.766;2022-09-13T06:53:35;100567.38;;;18.06;81.90
62051;BME280;48008;51.204;6.766;2022-09-13T06:58:39;100564.88;;;18.17;82.49
62051;BME280;48008;51.204;6.766;2022-09-13T07:01:16;100565.91;;;18.23;83.37
62051;BME280;48008;51.204;6.766;2022-09-13T07:03:47;100563.44;;;18.28;82.74
62051;BME280;48008;51.204;6.766;2022-09-13T07:06:17;100565.88;;;18.36;82.84
62051;BME280;48008;51.204;6.766;2022-09-13T07:08:48;100558.84;;;18.42;81.38
62051;BME280;48008;51.204;6.766;2022-09-13T07:11:17;100560.50;;;18.36;80.13
62051;BME280;48008;51.204;6.766;2022-09-13T07:13:48;100565.44;;;18.46;78.87
62051;BME280;48008;51.204;6.766;2022-09-13T07:16:17;100569.34;;;18.57;80.10
62051;BME280;48008;51.204;6.766;2022-09-13T07:18:44;100566.44;;;18.58;79.96
62051;BME280;48008;51.204;6.766;2022-09-13T07:21:11;100571.59;;;18.60;79.91
62051;BME280;48008;51.204;6.766;2022-09-13T07:23:38;100570.59;;;18.61;79.99
62051;BME280;48008;51.204;6.766;2022-09-13T07:26:06;100570.13;;;18.64;78.95
62051;BME280;48008;51.204;6.766;2022-09-13T07:28:37;100572.41;;;18.67;78.19
62051;BME280;48008;51.204;6.766;2022-09-13T07:31:05;100569.66;;;18.80;78.00
62051;BME280;48008;51.204;6.766;2022-09-13T07:33:33;100575.91;;;18.81;76.75
62051;BME280;48008;51.204;6.766;2022-09-13T07:36:00;100577.75;;;18.87;78.16
62051;BME280;48008;51.204;6.766;2022-09-13T07:38:33;100581.25;;;18.88;78.52
62051;BME280;48008;51.204;6.766;2022-09-13T07:41:01;100579.97;;;18.97;78.55
62051;BME280;48008;51.204;6.766;2022-09-13T07:43:28;100578.69;;;19.06;77.80
62051;BME280;48008;51.204;6.766;2022-09-13T07:46:12;100578.03;;;19.17;77.88
62051;BME280;48008;51.204;6.766;2022-09-13T07:48:41;100586.13;;;19.11;77.01
62051;BME280;48008;51.204;6.766;2022-09-13T07:51:10;100592.09;;;19.20;77.28
62051;BME280;48008;51.204;6.766;2022-09-13T07:53:38;100594.13;;;19.24;76.15
62051;BME280;48008;51.204;6.766;2022-09-13T07:56:11;100591.59;;;19.36;76.45
62051;BME280;48008;51.204;6.766;2022-09-13T07:58:39;100601.03;;;19.45;76.22
62051;BME280;48008;51.204;6.766;2022-09-13T08:01:10;100596.44;;;19.52;75.32
62051;BME280;48008;51.204;6.766;2022-09-13T08:03:38;100606.25;;;19.72;74.62
62051;BME280;48008;51.204;6.766;2022-09-13T08:06:06;100603.88;;;19.89;74.51
62051;BME280;48008;51.204;6.766;2022-09-13T08:08:35;100605.88;;;20.00;72.96
62051;BME280;48008;51.204;6.766;2022-09-13T08:11:04;100601.91;;;20.03;73.14
62051;BME280;48008;51.204;6.766;2022-09-13T08:13:32;100603.94;;;20.07;73.21
62051;BME280;48008;51.204;6.766;2022-09-13T08:16:03;100605.91;;;20.19;71.73
62051;BME280;48008;51.204;6.766;2022-09-13T08:18:31;100597.03;;;20.37;69.63
62051;BME280;48008;51.204;6.766;2022-09-13T08:20:59;100597.53;;;20.52;69.10
62051;BME280;48008;51.204;6.766;2022-09-13T08:23:26;100599.31;;;20.58;69.11
62051;BME280;48008;51.204;6.766;2022-09-13T08:25:53;100593.06;;;20.64;66.54
62051;BME280;48008;51.204;6.766;2022-09-13T08:28:20;100601.78;;;20.60;65.66
62051;BME280;48008;51.204;6.766;2022-09-13T08:30:49;100598.50;;;20.58;66.64
62051;BME280;48008;51.204;6.766;2022-09-13T08:33:16;100597.56;;;20.70;66.34
62051;BME280;48008;51.204;6.766;2022-09-13T08:35:51;100603.22;;;20.81;65.09
62051;BME280;48008;51.204;6.766;2022-09-13T08:38:18;100600.47;;;20.69;66.44
62051;BME280;48008;51.204;6.766;2022-09-13T08:40:52;100595.16;;;20.81;65.54
62051;BME280;48008;51.204;6.766;2022-09-13T08:46:01;100594.75;;;21.14;63.88
62051;BME280;48008;51.204;6.766;2022-09-13T08:48:33;100596.00;;;21.12;63.12
62051;BME280;48008;51.204;6.766;2022-09-13T08:51:04;100594.78;;;21.26;63.27
62051;BME280;48008;51.204;6.766;2022-09-13T08:53:43;100590.81;;;21.47;60.71
62051;BME280;48008;51.204;6.766;2022-09-13T08:56:16;100587.28;;;21.28;61.85
62051;BME280;48008;51.204;6.766;2022-09-13T09:05:14;100590.66;;;21.84;59.93
62051;BME280;48008;51.204;6.766;2022-09-13T09:07:47;100592.78;;;22.05;58.92
62051;BME280;48008;51.204;6.766;2022-09-13T09:10:22;100578.25;;;22.30;59.20
62051;BME280;48008;51.204;6.766;2022-09-13T09:12:57;100580.47;;;22.21;56.32
62051;BME280;48008;51.204;6.766;2022-09-13T09:15:38;100583.53;;;22.37;57.11
62051;BME280;48008;51.204;6.766;2022-09-13T09:18:12;100585.94;;;22.86;55.49
62051;BME280;48008;51.204;6.766;2022-09-13T09:20:42;100581.53;;;23.37;55.56
62051;BME280;48008;51.204;6.766;2022-09-13T09:23:16;100592.78;;;23.91;52.78
62051;BME280;48008;51.204;6.766;2022-09-13T09:25:47;100589.63;;;24.33;50.56
62051;BME280;48008;51.204;6.766;2022-09-13T09:28:17;100589.41;;;24.74;50.88
62051;BME280;48008;51.204;6.766;2022-09-13T09:36:34;100591.44;;;26.30;45.96
62051;BME280;48008;51.204;6.766;2022-09-13T09:39:04;100589.53;;;26.78;44.67
62051;BME280;48008;51.204;6.766;2022-09-13T09:41:32;100591.44;;;26.83;45.60
62051;BME280;48008;51.204;6.766;2022-09-13T09:44:22;100593.88;;;26.79;43.32
62051;BME280;48008;51.204;6.766;2022-09-13T09:47:13;100586.88;;;26.99;44.02
62051;BME280;48008;51.204;6.766;2022-09-13T09:50:10;100590.41;;;26.94;44.75
62051;BME280;48008;51.204;6.766;2022-09-13T09:52:54;100586.09;;;26.46;44.75
62051;BME280;48008;51.204;6.766;2022-09-13T09:55:29;100583.84;;;26.85;43.56
62051;BME280;48008;51.204;6.766;2022-09-13T09:57:59;100584.59;;;27.95;41.94
62051;BME280;48008;51.204;6.766;2022-09-13T10:00:30;100588.66;;;27.82;41.29
62051;BME280;48008;51.204;6.766;2022-09-13T10:03:03;100592.41;;;28.58;39.83
62051;BME280;48008;51.204;6.766;2022-09-13T10:05:33;100585.22;;;28.78;39.44
62051;BME280;48008;51.204;6.766;2022-09-13T10:08:04;100587.09;;;29.37;39.25
62051;BME280;48008;51.204;6.766;2022-09-13T10:13:15;100579.59;;;30.46;36.19
62051;BME280;48008;51.204;6.766;2022-09-13T10:16:02;100581.06;;;30.62;36.08
62051;BME280;48008;51.204;6.766;2022-09-13T10:18:31;100579.19;;;29.75;36.54
62051;BME280;48008;51.204;6.766;2022-09-13T10:21:24;100572.09;;;29.40;37.09
62051;BME280;48008;51.204;6.766;2022-09-13T10:24:15;100572.31;;;29.43;37.72
62051;BME280;48008;51.204;6.766;2022-09-13T10:26:43;100571.94;;;29.55;38.80
62051;BME280;48008;51.204;6.766;2022-09-13T10:29:14;100573.56;;;29.22;38.90
62051;BME280;48008;51.204;6.766;2022-09-13T10:31:45;100572.59;;;28.92;38.67
62051;BME280;48008;51.204;6.766;2022-09-13T10:34:17;100575.34;;;28.87;39.16
62051;BME280;48008;51.204;6.766;2022-09-13T10:36:53;100573.13;;;28.94;39.84
62051;BME280;48008;51.204;6.766;2022-09-13T10:39:23;100572.97;;;28.75;39.40
62051;BME280;48008;51.204;6.766;2022-09-13T10:41:54;100561.16;;;27.94;40.76
62051;BME280;48008;51.204;6.766;2022-09-13T10:45:02;100561.97;;;27.69;41.25
62051;BME280;48008;51.204;6.766;2022-09-13T10:47:24;100558.16;;;28.01;41.04
62051;BME280;48008;51.204;6.766;2022-09-13T10:49:55;100564.66;;;28.15;40.91
62051;BME280;48008;51.204;6.766;2022-09-13T10:52:26;100559.50;;;27.77;41.01
62051;BME280;48008;51.204;6.766;2022-09-13T10:54:55;100554.88;;;27.99;41.56
62051;BME280;48008;51.204;6.766;2022-09-13T10:57:35;100555.41;;;27.70;43.03
62051;BME280;48008;51.204;6.766;2022-09-13T11:00:08;100561.94;;;27.48;42.08
62051;BME280;48008;51.204;6.766;2022-09-13T11:09:13;100547.53;;;26.59;44.87
62051;BME280;48008;51.204;6.766;2022-09-13T11:11:51;100544.06;;;26.64;44.54
62051;BME280;48008;51.204;6.766;2022-09-13T11:14:46;100555.44;;;26.60;45.22
62051;BME280;48008;51.204;6.766;2022-09-13T11:23:35;100548.94;;;26.19;45.90
62051;BME280;48008;51.204;6.766;2022-09-13T11:27:01;100548.69;;;26.68;45.01
62051;BME280;48008;51.204;6.766;2022-09-13T11:32:51;100528.91;;;26.98;45.37
62051;BME280;48008;51.204;6.766;2022-09-13T11:38:20;100522.94;;;27.07;43.52
62051;BME280;48008;51.204;6.766;2022-09-13T11:41:04;100518.94;;;27.40;42.41
62051;BME280;48008;51.204;6.766;2022-09-13T11:46:50;100511.78;;;27.13;43.13
62051;BME280;48008;51.204;6.766;2022-09-13T11:49:41;100514.47;;;26.88;43.59
62051;BME280;48008;51.204;6.766;2022-09-13T11:55:17;100498.03;;;26.57;44.84
62051;BME280;48008;51.204;6.766;2022-09-13T11:57:51;100494.00;;;26.70;44.49
62051;BME280;48008;51.204;6.766;2022-09-13T12:00:21;100505.50;;;26.97;43.37
62051;BME280;48008;51.204;6.766;2022-09-13T12:05:40;100502.78;;;26.87;44.11
62051;BME280;48008;51.204;6.766;2022-09-13T12:08:18;100500.88;;;26.98;43.88
62051;BME280;48008;51.204;6.766;2022-09-13T12:10:52;100503.66;;;27.70;41.86
62051;BME280;48008;51.204;6.766;2022-09-13T12:13:24;100497.97;;;28.67;40.71
62051;BME280;48008;51.204;6.766;2022-09-13T12:15:52;100501.78;;;29.16;39.24
62051;BME280;48008;51.204;6.766;2022-09-13T12:18:28;100494.84;;;29.63;38.13
62051;BME280;48008;51.204;6.766;2022-09-13T12:21:02;100490.13;;;29.40;38.91
62051;BME280;48008;51.204;6.766;2022-09-13T12:23:36;100494.09;;;28.74;38.97
62051;BME280;48008;51.204;6.766;2022-09-13T12:26:09;100492.34;;;28.33;40.37
62051;BME280;48008;51.204;6.766;2022-09-13T12:28:43;100498.47;;;27.84;40.63
62051;BME280;48008;51.204;6.766;2022-09-13T12:31:16;100495.19;;;27.97;39.99
62051;BME280;48008;51.204;6.766;2022-09-13T12:33:45;100489.16;;;28.10;40.10
62051;BME280;48008;51.204;6.766;2022-09-13T12:39:23;100486.16;;;28.07;41.20
62051;BME280;48008;51.204;6.766;2022-09-13T12:51:19;100484.31;;;27.71;41.36
62051;BME280;48008;51.204;6.766;2022-09-13T12:54:21;100477.47;;;27.89;42.08
62051;BME280;48008;51.204;6.766;2022-09-13T13:00:38;100478.28;;;27.85;42.98
62051;BME280;48008;51.204;6.766;2022-09-13T13:03:03;100470.94;;;27.85;41.57
62051;BME280;48008;51.204;6.766;2022-09-13T13:06:05;100475.59;;;27.54;42.65
62051;BME280;48008;51.204;6.766;2022-09-13T13:08:33;100482.91;;;27.89;42.53
62051;BME280;48008;51.204;6.766;2022-09-13T13:11:12;100478.56;;;27.83;42.48
62051;BME280;48008;51.204;6.766;2022-09-13T13:13:45;100478.53;;;27.88;42.57
62051;BME280;48008;51.204;6.766;2022-09-13T13:16:39;100473.84;;;28.20;41.67
62051;BME280;48008;51.204;6.766;2022-09-13T13:19:28;100477.94;;;28.27;42.06
62051;BME280;48008;51.204;6.766;2022-09-13T13:22:47;100476.19;;;28.57;42.11
62051;BME280;48008;51.204;6.766;2022-09-13T13:25:37;100467.91;;;28.73;41.33
62051;BME280;48008;51.204;6.766;2022-09-13T13:29:24;100470.09;;;29.10;39.25
62051;BME280;48008;51.204;6.766;2022-09-13T13:36:58;100457.91;;;29.37;39.41
62051;BME280;48008;51.204;6.766;2022-09-13T13:42:29;100464.22;;;28.43;40.88
62051;BME280;48008;51.204;6.766;2022-09-13T13:47:41;100452.91;;;28.00;42.04
62051;BME280;48008;51.204;6.766;2022-09-13T13:50:17;100452.13;;;27.99;40.99
62051;BME280;48008;51.204;6.766;2022-09-13T13:55:30;100453.28;;;27.57;42.23
62051;BME280;48008;51.204;6.766;2022-09-13T13:58:14;100452.16;;;27.73;42.33
62051;BME280;48008;51.204;6.766;2022-09-13T14:00:50;100454.06;;;27.78;41.77
62051;BME280;48008;51.204;6.766;2022-09-13T14:06:47;100450.16;;;28.15;40.65
62051;BME280;48008;51.204;6.766;2022-09-13T14:10:06;100447.41;;;28.25;40.52
62051;BME280;48008;51.204;6.766;2022-09-13T14:12:52;100438.63;;;28.33;40.17
62051;BME280;48008;51.204;6.766;2022-09-13T14:16:04;100443.69;;;27.95;41.86
62051;BME280;48008;51.204;6.766;2022-09-13T14:18:31;100432.28;;;27.63;43.03
62051;BME280;48008;51.204;6.766;2022-09-13T14:21:20;100437.72;;;27.68;43.86
62051;BME280;48008;51.204;6.766;2022-09-13T14:23:48;100445.94;;;27.47;43.44
62051;BME280;48008;51.204;6.766;2022-09-13T14:26:15;100436.66;;;27.17;44.43
62051;BME280;48008;51.204;6.766;2022-09-13T14:28:42;100430.66;;;27.00;44.67
62051;BME280;48008;51.204;6.766;2022-09-13T14:31:15;100427.13;;;26.99;44.44
62051;BME280;48008;51.204;6.766;2022-09-13T14:33:43;100426.81;;;26.75;44.59
62051;BME280;48008;51.204;6.766;2022-09-13T14:36:19;100424.66;;;26.88;45.64
62051;BME280;48008;51.204;6.766;2022-09-13T14:38:50;100427.91;;;26.79;43.69
62051;BME280;48008;51.204;6.766;2022-09-13T14:41:21;100421.09;;;26.72;43.67
62051;BME280;48008;51.204;6.766;2022-09-13T14:44:20;100431.97;;;26.67;44.16
62051;BME280;48008;51.204;6.766;2022-09-13T14:46:56;100428.97;;;26.63;44.68
62051;BME280;48008;51.204;6.766;2022-09-13T14:49:31;100428.50;;;27.02;43.75
62051;BME280;48008;51.204;6.766;2022-09-13T14:52:02;100423.56;;;27.19;44.13
62051;BME280;48008;51.204;6.766;2022-09-13T14:54:42;100423.34;;;27.11;44.04
62051;BME280;48008;51.204;6.766;2022-09-13T14:57:26;100416.97;;;26.49;45.18
62051;BME280;48008;51.204;6.766;2022-09-13T14:59:58;100418.72;;;26.07;46.88
62051;BME280;48008;51.204;6.766;2022-09-13T15:02:31;100423.56;;;26.00;47.79
62051;BME280;48008;51.204;6.766;2022-09-13T15:05:04;100418.66;;;25.97;47.02
62051;BME280;48008;51.204;6.766;2022-09-13T15:07:34;100426.31;;;26.10;47.03
62051;BME280;48008;51.204;6.766;2022-09-13T15:13:06;100427.38;;;25.99;47.01
62051;BME280;48008;51.204;6.766;2022-09-13T15:15:39;100419.00;;;26.11;46.27
62051;BME280;48008;51.204;6.766;2022-09-13T15:18:24;100424.72;;;26.19;46.28
62051;BME280;48008;51.204;6.766;2022-09-13T15:21:01;100415.16;;;26.01;47.06
62051;BME280;48008;51.204;6.766;2022-09-13T15:23:31;100423.03;;;25.98;48.01